Pagrindinis puslapis
METAR-TAF:

METAR-TAF

Oro uostai :

Konija, Turkija

platuma: 37-58N, ilguma: 032-33E, Aukštis: 1032 m

Dabartinis oras

Ataskaita buvo paskelbta 21 minutes, ne 18:50 UTC
Vėjas 8 kt iš Šiaurės
Temperatūra 4°C
Drėgmė 65%
Slėgis 1018 hPa
Matomumas 10 km arba daugiau
Mažai debesys ne aukštis 3500 ft
Išsisklaidę debesys ne aukštis 10000 ft

METAR: LTAN 251850Z 36008KT 9999 FEW035 SCT100 04/M02 Q1018 NOSIG

Laikas: 22:11 (19:11 UTC)

Prognozė

Ataskaita buvo paskelbta 2 valandos ir 31 minutes, ne 16:40 UTC
Prognozė galioja nuo 25 metu 18 UTC su 26 metu 03 UTC
Vėjas 12 kt iš Šiaurės
Matomumas 10 km arba daugiau
Mažai debesys ne aukštis 4000 ft
Su prošvaistėmis ne aukštis 10000 ft

TAF: LTAN 251640Z 2518/2603 36012KT 9999 FEW040 BKN100

Orai ataskaitas ir orų prognozės (METAR, TAF).

turimą stotys yra geltonos ir raudonos taškus žemėlapyje.

Perkelti pele per norėdami pamatyti stoties vardą.

Tada spustelėkite, norėdami matyti oro stebėjimo ir prognozės.

Norėdami pakeisti žemėlapį: spustelėkite ant žalios mygtukų su juodo kryžiaus žemyn,; žalią mygtuką su brūkšneliu, jei norite nutolinti; arba žalių rodyklių gretimoms žemėlapius.


METAR-TAF: